sensor_id;sensor_type;location;lat;lon;timestamp;temperature;humidity
9768;DHT22;4923;52.520;13.494;2022-10-16T00:02:02;14.10;99.90
9768;DHT22;4923;52.520;13.494;2022-10-16T00:04:49;14.20;99.90
9768;DHT22;4923;52.520;13.494;2022-10-16T00:07:37;14.20;99.90
9768;DHT22;4923;52.520;13.494;2022-10-16T00:10:24;14.20;99.90
9768;DHT22;4923;52.520;13.494;2022-10-16T00:13:12;14.20;99.90
9768;DHT22;4923;52.520;13.494;2022-10-16T00:16:00;14.30;99.90
9768;DHT22;4923;52.520;13.494;2022-10-16T00:18:47;14.30;99.90
9768;DHT22;4923;52.520;13.494;2022-10-16T00:21:34;14.30;99.90
9768;DHT22;4923;52.520;13.494;2022-10-16T00:24:21;14.40;99.90
9768;DHT22;4923;52.520;13.494;2022-10-16T00:27:08;14.40;99.90
9768;DHT22;4923;52.520;13.494;2022-10-16T00:29:56;14.50;99.90
9768;DHT22;4923;52.520;13.494;2022-10-16T00:32:43;14.50;99.90
9768;DHT22;4923;52.520;13.494;2022-10-16T00:35:30;14.50;99.90
9768;DHT22;4923;52.520;13.494;2022-10-16T00:38:17;14.60;99.90
9768;DHT22;4923;52.520;13.494;2022-10-16T00:41:05;14.60;99.90
9768;DHT22;4923;52.520;13.494;2022-10-16T00:43:54;14.60;99.90
9768;DHT22;4923;52.520;13.494;2022-10-16T00:46:42;14.60;99.90
9768;DHT22;4923;52.520;13.494;2022-10-16T00:49:29;14.60;99.90
9768;DHT22;4923;52.520;13.494;2022-10-16T00:52:17;14.60;99.90
9768;DHT22;4923;52.520;13.494;2022-10-16T00:55:05;14.60;99.90
9768;DHT22;4923;52.520;13.494;2022-10-16T00:57:53;14.60;99.90
9768;DHT22;4923;52.520;13.494;2022-10-16T01:00:40;14.60;99.90
9768;DHT22;4923;52.520;13.494;2022-10-16T01:03:30;14.60;99.90
9768;DHT22;4923;52.520;13.494;2022-10-16T01:06:23;14.60;99.90
9768;DHT22;4923;52.520;13.494;2022-10-16T01:09:14;14.60;99.90
9768;DHT22;4923;52.520;13.494;2022-10-16T01:12:08;14.60;99.90
9768;DHT22;4923;52.520;13.494;2022-10-16T01:14:59;14.60;99.90
9768;DHT22;4923;52.520;13.494;2022-10-16T01:17:51;14.60;99.90
9768;DHT22;4923;52.520;13.494;2022-10-16T01:20:45;14.60;99.90
9768;DHT22;4923;52.520;13.494;2022-10-16T01:23:43;14.60;99.90
9768;DHT22;4923;52.520;13.494;2022-10-16T01:29:49;14.60;99.90
9768;DHT22;4923;52.520;13.494;2022-10-16T01:32:41;14.50;99.90
9768;DHT22;4923;52.520;13.494;2022-10-16T01:35:32;14.50;99.90
9768;DHT22;4923;52.520;13.494;2022-10-16T01:38:25;14.50;99.90
9768;DHT22;4923;52.520;13.494;2022-10-16T01:41:17;14.50;99.90
9768;DHT22;4923;52.520;13.494;2022-10-16T01:44:08;14.50;99.90
9768;DHT22;4923;52.520;13.494;2022-10-16T01:46:59;14.50;99.90
9768;DHT22;4923;52.520;13.494;2022-10-16T01:49:47;14.50;99.90
9768;DHT22;4923;52.520;13.494;2022-10-16T01:52:37;14.50;99.90
9768;DHT22;4923;52.520;13.494;2022-10-16T01:55:29;14.50;99.90
9768;DHT22;4923;52.520;13.494;2022-10-16T01:58:18;14.50;99.90
9768;DHT22;4923;52.520;13.494;2022-10-16T02:01:07;14.50;99.90
9768;DHT22;4923;52.520;13.494;2022-10-16T02:04:02;14.60;99.90
9768;DHT22;4923;52.520;13.494;2022-10-16T02:06:50;14.60;99.90
9768;DHT22;4923;52.520;13.494;2022-10-16T02:09:37;14.60;99.90
9768;DHT22;4923;52.520;13.494;2022-10-16T02:12:27;14.60;99.90
9768;DHT22;4923;52.520;13.494;2022-10-16T02:15:15;14.70;99.90
9768;DHT22;4923;52.520;13.494;2022-10-16T02:18:03;14.70;99.90
9768;DHT22;4923;52.520;13.494;2022-10-16T02:20:56;14.80;99.90
9768;DHT22;4923;52.520;13.494;2022-10-16T02:23:50;14.80;99.90
9768;DHT22;4923;52.520;13.494;2022-10-16T02:26:42;14.80;99.90
9768;DHT22;4923;52.520;13.494;2022-10-16T02:29:30;14.90;99.90
9768;DHT22;4923;52.520;13.494;2022-10-16T02:32:21;14.90;99.90
9768;DHT22;4923;52.520;13.494;2022-10-16T02:35:10;15.00;99.90
9768;DHT22;4923;52.520;13.494;2022-10-16T02:37:59;15.00;99.90
9768;DHT22;4923;52.520;13.494;2022-10-16T02:40:46;15.00;99.90
9768;DHT22;4923;52.520;13.494;2022-10-16T02:43:33;15.10;99.90
9768;DHT22;4923;52.520;13.494;2022-10-16T02:46:21;15.10;99.90
9768;DHT22;4923;52.520;13.494;2022-10-16T02:49:08;15.10;99.90
9768;DHT22;4923;52.520;13.494;2022-10-16T02:51:55;15.20;99.90
9768;DHT22;4923;52.520;13.494;2022-10-16T02:54:43;15.20;99.90
9768;DHT22;4923;52.520;13.494;2022-10-16T02:57:30;15.20;99.90
9768;DHT22;4923;52.520;13.494;2022-10-16T03:00:18;15.20;99.90
9768;DHT22;4923;52.520;13.494;2022-10-16T03:03:04;15.30;97.90
9768;DHT22;4923;52.520;13.494;2022-10-16T03:05:51;15.30;90.30
9768;DHT22;4923;52.520;13.494;2022-10-16T03:08:38;15.30;81.70
9768;DHT22;4923;52.520;13.494;2022-10-16T03:11:27;15.30;92.20
9768;DHT22;4923;52.520;13.494;2022-10-16T03:14:14;15.20;49.70
9768;DHT22;4923;52.520;13.494;2022-10-16T03:17:00;15.20;38.80
9768;DHT22;4923;52.520;13.494;2022-10-16T03:19:47;15.20;32.80
9768;DHT22;4923;52.520;13.494;2022-10-16T03:22:36;15.20;30.30
9768;DHT22;4923;52.520;13.494;2022-10-16T03:25:23;15.10;26.80
9768;DHT22;4923;52.520;13.494;2022-10-16T03:28:11;15.10;26.10
9768;DHT22;4923;52.520;13.494;2022-10-16T03:30:58;15.00;25.90
9768;DHT22;4923;52.520;13.494;2022-10-16T03:33:45;15.00;27.90
9768;DHT22;4923;52.520;13.494;2022-10-16T03:36:32;14.90;30.00
9768;DHT22;4923;52.520;13.494;2022-10-16T03:39:19;14.90;33.30
9768;DHT22;4923;52.520;13.494;2022-10-16T03:42:06;14.90;38.10
9768;DHT22;4923;52.520;13.494;2022-10-16T03:44:54;14.80;39.20
9768;DHT22;4923;52.520;13.494;2022-10-16T03:47:41;14.80;42.90
9768;DHT22;4923;52.520;13.494;2022-10-16T03:50:28;14.80;47.70
9768;DHT22;4923;52.520;13.494;2022-10-16T03:53:15;14.80;53.30
9768;DHT22;4923;52.520;13.494;2022-10-16T03:56:02;14.70;56.40
9768;DHT22;4923;52.520;13.494;2022-10-16T03:58:49;14.70;62.10
9768;DHT22;4923;52.520;13.494;2022-10-16T04:01:37;14.70;68.40
9768;DHT22;4923;52.520;13.494;2022-10-16T04:04:24;14.70;72.60
9768;DHT22;4923;52.520;13.494;2022-10-16T04:07:11;14.60;81.70
9768;DHT22;4923;52.520;13.494;2022-10-16T04:09:58;14.60;86.10
9768;DHT22;4923;52.520;13.494;2022-10-16T04:12:45;14.60;90.30
9768;DHT22;4923;52.520;13.494;2022-10-16T04:15:32;14.50;91.80
9768;DHT22;4923;52.520;13.494;2022-10-16T04:18:20;14.60;93.20
9768;DHT22;4923;52.520;13.494;2022-10-16T04:21:07;14.50;94.70
9768;DHT22;4923;52.520;13.494;2022-10-16T04:23:54;14.50;96.40
9768;DHT22;4923;52.520;13.494;2022-10-16T04:26:41;14.50;98.10
9768;DHT22;4923;52.520;13.494;2022-10-16T04:29:28;14.50;99.90
9768;DHT22;4923;52.520;13.494;2022-10-16T04:32:15;14.40;99.90
9768;DHT22;4923;52.520;13.494;2022-10-16T04:35:04;14.40;99.90
9768;DHT22;4923;52.520;13.494;2022-10-16T04:37:51;14.40;99.90
9768;DHT22;4923;52.520;13.494;2022-10-16T04:40:38;14.30;99.90
9768;DHT22;4923;52.520;13.494;2022-10-16T04:43:25;14.30;99.90
9768;DHT22;4923;52.520;13.494;2022-10-16T04:46:12;14.30;99.90
9768;DHT22;4923;52.520;13.494;2022-10-16T04:48:59;14.20;99.90
9768;DHT22;4923;52.520;13.494;2022-10-16T04:51:47;14.20;99.90
9768;DHT22;4923;52.520;13.494;2022-10-16T04:54:34;14.20;99.90
9768;DHT22;4923;52.520;13.494;2022-10-16T04:57:22;14.20;99.90
9768;DHT22;4923;52.520;13.494;2022-10-16T05:00:11;14.20;99.90
9768;DHT22;4923;52.520;13.494;2022-10-16T05:02:58;14.10;99.90
9768;DHT22;4923;52.520;13.494;2022-10-16T05:05:46;14.10;99.90
9768;DHT22;4923;52.520;13.494;2022-10-16T05:08:34;14.00;99.90
9768;DHT22;4923;52.520;13.494;2022-10-16T05:11:23;14.00;99.90
9768;DHT22;4923;52.520;13.494;2022-10-16T05:14:10;13.90;99.90
9768;DHT22;4923;52.520;13.494;2022-10-16T05:16:57;13.90;99.90
9768;DHT22;4923;52.520;13.494;2022-10-16T05:19:44;13.90;99.90
9768;DHT22;4923;52.520;13.494;2022-10-16T05:22:31;13.90;99.90
9768;DHT22;4923;52.520;13.494;2022-10-16T05:25:19;13.90;99.90
9768;DHT22;4923;52.520;13.494;2022-10-16T05:28:06;13.90;99.90
9768;DHT22;4923;52.520;13.494;2022-10-16T05:30:53;13.90;99.90
9768;DHT22;4923;52.520;13.494;2022-10-16T05:33:40;13.80;99.90
9768;DHT22;4923;52.520;13.494;2022-10-16T05:36:27;13.80;99.90
9768;DHT22;4923;52.520;13.494;2022-10-16T05:39:15;13.80;99.90
9768;DHT22;4923;52.520;13.494;2022-10-16T05:42:04;13.90;99.90
9768;DHT22;4923;52.520;13.494;2022-10-16T05:44:51;13.90;99.90
9768;DHT22;4923;52.520;13.494;2022-10-16T05:47:38;14.00;99.90
9768;DHT22;4923;52.520;13.494;2022-10-16T05:50:25;14.00;99.90
9768;DHT22;4923;52.520;13.494;2022-10-16T05:53:12;14.00;99.90
9768;DHT22;4923;52.520;13.494;2022-10-16T05:55:59;14.00;99.90
9768;DHT22;4923;52.520;13.494;2022-10-16T05:58:48;14.10;99.90
9768;DHT22;4923;52.520;13.494;2022-10-16T06:01:35;14.20;99.90
9768;DHT22;4923;52.520;13.494;2022-10-16T06:04:25;14.20;99.90
9768;DHT22;4923;52.520;13.494;2022-10-16T06:07:12;14.20;99.90
9768;DHT22;4923;52.520;13.494;2022-10-16T06:09:59;14.20;99.90
9768;DHT22;4923;52.520;13.494;2022-10-16T06:12:46;14.20;99.90
9768;DHT22;4923;52.520;13.494;2022-10-16T06:15:35;14.30;99.90
9768;DHT22;4923;52.520;13.494;2022-10-16T06:18:22;14.30;99.90
9768;DHT22;4923;52.520;13.494;2022-10-16T06:21:11;14.40;99.90
9768;DHT22;4923;52.520;13.494;2022-10-16T06:23:58;14.50;99.90
9768;DHT22;4923;52.520;13.494;2022-10-16T06:26:45;14.60;99.90
9768;DHT22;4923;52.520;13.494;2022-10-16T06:29:32;14.70;99.90
9768;DHT22;4923;52.520;13.494;2022-10-16T06:32:20;14.70;99.90
9768;DHT22;4923;52.520;13.494;2022-10-16T06:35:07;14.80;99.90
9768;DHT22;4923;52.520;13.494;2022-10-16T06:37:55;14.90;99.90
9768;DHT22;4923;52.520;13.494;2022-10-16T06:40:41;15.00;99.90
9768;DHT22;4923;52.520;13.494;2022-10-16T06:43:29;15.10;99.90
9768;DHT22;4923;52.520;13.494;2022-10-16T06:46:19;15.20;99.90
9768;DHT22;4923;52.520;13.494;2022-10-16T06:49:08;15.20;99.90
9768;DHT22;4923;52.520;13.494;2022-10-16T06:51:55;15.20;99.90
9768;DHT22;4923;52.520;13.494;2022-10-16T06:54:42;15.30;99.90
9768;DHT22;4923;52.520;13.494;2022-10-16T06:57:29;15.30;99.90
9768;DHT22;4923;52.520;13.494;2022-10-16T07:00:16;15.40;99.90
9768;DHT22;4923;52.520;13.494;2022-10-16T07:03:03;15.50;99.70
9768;DHT22;4923;52.520;13.494;2022-10-16T07:05:51;15.60;90.10
9768;DHT22;4923;52.520;13.494;2022-10-16T07:08:40;15.60;71.80
9768;DHT22;4923;52.520;13.494;2022-10-16T07:11:27;15.70;52.50
9768;DHT22;4923;52.520;13.494;2022-10-16T07:14:17;15.90;34.80
9768;DHT22;4923;52.520;13.494;2022-10-16T07:17:04;16.20;12.50
9768;DHT22;4923;52.520;13.494;2022-10-16T07:19:51;16.50;1.00
9768;DHT22;4923;52.520;13.494;2022-10-16T07:22:40;16.80;1.00
9768;DHT22;4923;52.520;13.494;2022-10-16T07:25:27;17.10;1.00
9768;DHT22;4923;52.520;13.494;2022-10-16T07:28:14;17.30;1.00
9768;DHT22;4923;52.520;13.494;2022-10-16T07:31:02;17.40;1.00
9768;DHT22;4923;52.520;13.494;2022-10-16T07:33:50;17.50;1.00
9768;DHT22;4923;52.520;13.494;2022-10-16T07:36:37;17.70;1.00
9768;DHT22;4923;52.520;13.494;2022-10-16T07:39:25;17.80;1.00
9768;DHT22;4923;52.520;13.494;2022-10-16T07:42:12;17.80;1.00
9768;DHT22;4923;52.520;13.494;2022-10-16T07:44:59;17.80;1.00
9768;DHT22;4923;52.520;13.494;2022-10-16T07:47:46;17.80;1.00
9768;DHT22;4923;52.520;13.494;2022-10-16T07:50:33;17.90;1.00
9768;DHT22;4923;52.520;13.494;2022-10-16T07:53:20;17.90;1.00
9768;DHT22;4923;52.520;13.494;2022-10-16T07:56:09;18.00;1.00
9768;DHT22;4923;52.520;13.494;2022-10-16T07:58:56;18.00;1.00
9768;DHT22;4923;52.520;13.494;2022-10-16T08:01:43;17.90;1.00
9768;DHT22;4923;52.520;13.494;2022-10-16T08:04:30;17.90;1.00
9768;DHT22;4923;52.520;13.494;2022-10-16T08:07:17;17.90;1.00
9768;DHT22;4923;52.520;13.494;2022-10-16T08:10:05;17.90;1.00
9768;DHT22;4923;52.520;13.494;2022-10-16T08:12:53;17.90;1.00
9768;DHT22;4923;52.520;13.494;2022-10-16T08:15:40;18.00;1.00
9768;DHT22;4923;52.520;13.494;2022-10-16T08:18:27;18.10;1.00
9768;DHT22;4923;52.520;13.494;2022-10-16T08:21:16;18.30;1.00
9768;DHT22;4923;52.520;13.494;2022-10-16T08:24:03;18.40;1.00
9768;DHT22;4923;52.520;13.494;2022-10-16T08:26:50;18.40;1.00
9768;DHT22;4923;52.520;13.494;2022-10-16T08:29:41;18.60;1.00
9768;DHT22;4923;52.520;13.494;2022-10-16T08:32:27;18.60;1.00
9768;DHT22;4923;52.520;13.494;2022-10-16T08:35:15;18.60;1.00
9768;DHT22;4923;52.520;13.494;2022-10-16T08:38:03;18.60;1.00
9768;DHT22;4923;52.520;13.494;2022-10-16T08:40:49;18.50;1.00
9768;DHT22;4923;52.520;13.494;2022-10-16T08:43:46;18.50;1.00
9768;DHT22;4923;52.520;13.494;2022-10-16T08:46:47;18.40;1.00
9768;DHT22;4923;52.520;13.494;2022-10-16T08:49:47;18.40;1.00
9768;DHT22;4923;52.520;13.494;2022-10-16T08:52:41;18.60;1.00
9768;DHT22;4923;52.520;13.494;2022-10-16T08:55:36;18.80;1.00
9768;DHT22;4923;52.520;13.494;2022-10-16T08:58:27;18.90;1.00
9768;DHT22;4923;52.520;13.494;2022-10-16T09:01:16;18.90;1.00
9768;DHT22;4923;52.520;13.494;2022-10-16T09:04:29;19.00;1.00
9768;DHT22;4923;52.520;13.494;2022-10-16T09:07:28;19.00;1.00
9768;DHT22;4923;52.520;13.494;2022-10-16T09:10:27;18.90;1.00
9768;DHT22;4923;52.520;13.494;2022-10-16T09:13:22;18.80;1.00
9768;DHT22;4923;52.520;13.494;2022-10-16T09:16:16;18.90;1.00
9768;DHT22;4923;52.520;13.494;2022-10-16T09:19:13;19.10;1.00
9768;DHT22;4923;52.520;13.494;2022-10-16T09:22:12;19.00;1.00
9768;DHT22;4923;52.520;13.494;2022-10-16T09:25:04;19.00;1.00
9768;DHT22;4923;52.520;13.494;2022-10-16T09:27:56;19.00;1.00
9768;DHT22;4923;52.520;13.494;2022-10-16T09:30:44;19.00;1.00
9768;DHT22;4923;52.520;13.494;2022-10-16T09:33:34;19.10;1.00
9768;DHT22;4923;52.520;13.494;2022-10-16T09:36:23;19.30;1.00
9768;DHT22;4923;52.520;13.494;2022-10-16T09:39:14;19.40;1.00
9768;DHT22;4923;52.520;13.494;2022-10-16T09:42:01;19.30;1.00
9768;DHT22;4923;52.520;13.494;2022-10-16T09:44:51;19.20;1.00
9768;DHT22;4923;52.520;13.494;2022-10-16T09:47:41;19.20;1.00
9768;DHT22;4923;52.520;13.494;2022-10-16T09:50:32;19.10;1.00
9768;DHT22;4923;52.520;13.494;2022-10-16T09:53:19;19.00;1.00
9768;DHT22;4923;52.520;13.494;2022-10-16T09:56:11;19.00;1.00
9768;DHT22;4923;52.520;13.494;2022-10-16T09:59:02;19.00;1.00
9768;DHT22;4923;52.520;13.494;2022-10-16T10:01:51;19.00;1.00
9768;DHT22;4923;52.520;13.494;2022-10-16T10:04:46;19.00;1.00
9768;DHT22;4923;52.520;13.494;2022-10-16T10:07:39;19.10;1.00
9768;DHT22;4923;52.520;13.494;2022-10-16T10:10:28;19.20;1.00
9768;DHT22;4923;52.520;13.494;2022-10-16T10:13:19;19.30;1.00
9768;DHT22;4923;52.520;13.494;2022-10-16T10:16:06;19.50;1.00
9768;DHT22;4923;52.520;13.494;2022-10-16T10:18:58;19.50;1.00
9768;DHT22;4923;52.520;13.494;2022-10-16T10:21:45;19.60;1.00
9768;DHT22;4923;52.520;13.494;2022-10-16T10:24:32;19.80;1.00
9768;DHT22;4923;52.520;13.494;2022-10-16T10:27:20;20.00;1.00
9768;DHT22;4923;52.520;13.494;2022-10-16T10:30:19;20.00;1.00
9768;DHT22;4923;52.520;13.494;2022-10-16T10:33:18;20.00;1.00
9768;DHT22;4923;52.520;13.494;2022-10-16T10:36:21;20.00;1.00
9768;DHT22;4923;52.520;13.494;2022-10-16T10:39:15;20.00;1.00
9768;DHT22;4923;52.520;13.494;2022-10-16T10:42:13;20.00;1.00
9768;DHT22;4923;52.520;13.494;2022-10-16T10:45:24;20.00;1.00
9768;DHT22;4923;52.520;13.494;2022-10-16T10:48:20;20.10;1.00
9768;DHT22;4923;52.520;13.494;2022-10-16T10:51:12;20.30;1.00
9768;DHT22;4923;52.520;13.494;2022-10-16T10:54:10;20.50;1.00
9768;DHT22;4923;52.520;13.494;2022-10-16T10:57:02;20.60;1.00
9768;DHT22;4923;52.520;13.494;2022-10-16T11:00:06;20.70;1.00
9768;DHT22;4923;52.520;13.494;2022-10-16T11:03:04;20.90;1.00
9768;DHT22;4923;52.520;13.494;2022-10-16T11:05:56;20.80;1.00
9768;DHT22;4923;52.520;13.494;2022-10-16T11:08:47;20.70;1.00
9768;DHT22;4923;52.520;13.494;2022-10-16T11:11:40;20.70;1.00
9768;DHT22;4923;52.520;13.494;2022-10-16T11:14:30;20.80;1.00
9768;DHT22;4923;52.520;13.494;2022-10-16T11:17:21;21.00;1.00
9768;DHT22;4923;52.520;13.494;2022-10-16T11:20:16;21.00;1.00
9768;DHT22;4923;52.520;13.494;2022-10-16T11:23:10;20.80;1.00
9768;DHT22;4923;52.520;13.494;2022-10-16T11:26:02;20.80;1.00
9768;DHT22;4923;52.520;13.494;2022-10-16T11:28:54;20.70;1.00
9768;DHT22;4923;52.520;13.494;2022-10-16T11:31:45;20.70;1.00
9768;DHT22;4923;52.520;13.494;2022-10-16T11:34:37;20.50;1.00
9768;DHT22;4923;52.520;13.494;2022-10-16T11:37:33;20.30;1.00
9768;DHT22;4923;52.520;13.494;2022-10-16T11:40:27;20.20;1.00
9768;DHT22;4923;52.520;13.494;2022-10-16T11:43:17;20.10;1.00
9768;DHT22;4923;52.520;13.494;2022-10-16T11:46:11;20.00;1.00
9768;DHT22;4923;52.520;13.494;2022-10-16T11:49:06;20.00;1.00
9768;DHT22;4923;52.520;13.494;2022-10-16T11:52:00;20.00;1.00
9768;DHT22;4923;52.520;13.494;2022-10-16T11:54:54;20.00;1.00
9768;DHT22;4923;52.520;13.494;2022-10-16T11:57:45;19.90;1.00
9768;DHT22;4923;52.520;13.494;2022-10-16T12:00:38;19.70;1.00
9768;DHT22;4923;52.520;13.494;2022-10-16T12:03:30;19.60;1.00
9768;DHT22;4923;52.520;13.494;2022-10-16T12:06:29;19.40;1.00
9768;DHT22;4923;52.520;13.494;2022-10-16T12:09:25;19.40;1.00
9768;DHT22;4923;52.520;13.494;2022-10-16T12:12:27;19.30;1.00
9768;DHT22;4923;52.520;13.494;2022-10-16T12:15:26;19.30;1.00
9768;DHT22;4923;52.520;13.494;2022-10-16T12:18:21;19.30;1.00
9768;DHT22;4923;52.520;13.494;2022-10-16T12:21:09;19.30;1.00
9768;DHT22;4923;52.520;13.494;2022-10-16T12:24:03;19.50;1.00
9768;DHT22;4923;52.520;13.494;2022-10-16T12:26:52;19.70;1.00
9768;DHT22;4923;52.520;13.494;2022-10-16T12:29:44;19.80;1.00
9768;DHT22;4923;52.520;13.494;2022-10-16T12:32:34;19.90;1.00
9768;DHT22;4923;52.520;13.494;2022-10-16T12:35:24;20.00;1.00
9768;DHT22;4923;52.520;13.494;2022-10-16T12:38:17;19.90;1.00
9768;DHT22;4923;52.520;13.494;2022-10-16T12:41:07;19.90;1.00
9768;DHT22;4923;52.520;13.494;2022-10-16T12:43:56;20.00;1.00
9768;DHT22;4923;52.520;13.494;2022-10-16T12:46:45;20.00;1.00
9768;DHT22;4923;52.520;13.494;2022-10-16T12:49:37;20.10;1.00
9768;DHT22;4923;52.520;13.494;2022-10-16T12:52:28;20.10;1.00
9768;DHT22;4923;52.520;13.494;2022-10-16T12:55:19;20.20;1.00
9768;DHT22;4923;52.520;13.494;2022-10-16T12:58:19;20.30;1.00
9768;DHT22;4923;52.520;13.494;2022-10-16T13:01:18;20.30;1.00
9768;DHT22;4923;52.520;13.494;2022-10-16T13:04:27;20.30;1.00
9768;DHT22;4923;52.520;13.494;2022-10-16T13:07:31;20.30;1.00
9768;DHT22;4923;52.520;13.494;2022-10-16T13:10:28;20.30;1.00
9768;DHT22;4923;52.520;13.494;2022-10-16T13:16:33;20.30;1.00
9768;DHT22;4923;52.520;13.494;2022-10-16T13:19:29;20.20;1.00
9768;DHT22;4923;52.520;13.494;2022-10-16T13:22:23;20.30;1.00
9768;DHT22;4923;52.520;13.494;2022-10-16T13:25:21;20.30;1.00
9768;DHT22;4923;52.520;13.494;2022-10-16T13:28:11;20.30;1.00
9768;DHT22;4923;52.520;13.494;2022-10-16T13:31:01;20.40;1.00
9768;DHT22;4923;52.520;13.494;2022-10-16T13:33:51;20.40;1.00
9768;DHT22;4923;52.520;13.494;2022-10-16T13:36:45;20.30;1.00
9768;DHT22;4923;52.520;13.494;2022-10-16T13:39:32;20.30;1.00
9768;DHT22;4923;52.520;13.494;2022-10-16T13:42:23;20.30;1.00
9768;DHT22;4923;52.520;13.494;2022-10-16T13:45:20;20.30;1.00
9768;DHT22;4923;52.520;13.494;2022-10-16T13:48:10;20.30;1.00
9768;DHT22;4923;52.520;13.494;2022-10-16T13:51:12;20.30;1.00
9768;DHT22;4923;52.520;13.494;2022-10-16T13:54:00;20.30;1.00
9768;DHT22;4923;52.520;13.494;2022-10-16T13:56:48;20.20;1.00
9768;DHT22;4923;52.520;13.494;2022-10-16T13:59:37;20.20;1.00
9768;DHT22;4923;52.520;13.494;2022-10-16T14:02:26;20.20;1.00
9768;DHT22;4923;52.520;13.494;2022-10-16T14:05:14;20.10;1.00
9768;DHT22;4923;52.520;13.494;2022-10-16T14:08:01;20.10;1.00
9768;DHT22;4923;52.520;13.494;2022-10-16T14:10:54;20.00;1.00
9768;DHT22;4923;52.520;13.494;2022-10-16T14:13:44;19.90;1.00
9768;DHT22;4923;52.520;13.494;2022-10-16T14:16:33;19.80;1.00
9768;DHT22;4923;52.520;13.494;2022-10-16T14:19:22;19.80;1.00
9768;DHT22;4923;52.520;13.494;2022-10-16T14:22:24;19.80;1.00
9768;DHT22;4923;52.520;13.494;2022-10-16T14:25:23;19.80;1.00
9768;DHT22;4923;52.520;13.494;2022-10-16T14:28:19;19.70;1.00
9768;DHT22;4923;52.520;13.494;2022-10-16T14:31:25;19.70;1.00
9768;DHT22;4923;52.520;13.494;2022-10-16T14:34:26;19.60;1.00
9768;DHT22;4923;52.520;13.494;2022-10-16T14:37:18;19.50;1.00
9768;DHT22;4923;52.520;13.494;2022-10-16T14:40:14;19.40;1.00
9768;DHT22;4923;52.520;13.494;2022-10-16T14:43:03;19.40;1.00
9768;DHT22;4923;52.520;13.494;2022-10-16T14:45:54;19.30;1.00
9768;DHT22;4923;52.520;13.494;2022-10-16T14:48:42;19.30;1.00
9768;DHT22;4923;52.520;13.494;2022-10-16T14:51:30;19.30;1.00
9768;DHT22;4923;52.520;13.494;2022-10-16T14:54:18;19.30;1.00
9768;DHT22;4923;52.520;13.494;2022-10-16T14:57:05;19.30;1.00
9768;DHT22;4923;52.520;13.494;2022-10-16T15:00:00;19.30;1.00
9768;DHT22;4923;52.520;13.494;2022-10-16T15:02:49;19.20;1.00
9768;DHT22;4923;52.520;13.494;2022-10-16T15:05:36;19.20;1.00
9768;DHT22;4923;52.520;13.494;2022-10-16T15:08:23;19.30;1.00
9768;DHT22;4923;52.520;13.494;2022-10-16T15:11:13;19.30;1.00
9768;DHT22;4923;52.520;13.494;2022-10-16T15:14:01;19.20;1.00
9768;DHT22;4923;52.520;13.494;2022-10-16T15:16:50;19.10;1.00
9768;DHT22;4923;52.520;13.494;2022-10-16T15:19:38;19.10;1.00
9768;DHT22;4923;52.520;13.494;2022-10-16T15:22:25;19.00;1.00
9768;DHT22;4923;52.520;13.494;2022-10-16T15:25:26;18.90;1.00
9768;DHT22;4923;52.520;13.494;2022-10-16T15:28:15;18.80;1.00
9768;DHT22;4923;52.520;13.494;2022-10-16T15:31:04;18.80;1.00
9768;DHT22;4923;52.520;13.494;2022-10-16T15:33:52;18.70;1.00
9768;DHT22;4923;52.520;13.494;2022-10-16T15:36:44;18.70;1.00
9768;DHT22;4923;52.520;13.494;2022-10-16T15:39:31;18.60;1.00
9768;DHT22;4923;52.520;13.494;2022-10-16T15:42:18;18.50;1.00
9768;DHT22;4923;52.520;13.494;2022-10-16T15:45:06;18.40;1.00
9768;DHT22;4923;52.520;13.494;2022-10-16T15:47:54;18.30;1.00
9768;DHT22;4923;52.520;13.494;2022-10-16T15:50:44;18.20;1.00
9768;DHT22;4923;52.520;13.494;2022-10-16T15:53:32;18.20;1.00
9768;DHT22;4923;52.520;13.494;2022-10-16T15:56:19;18.10;1.00
9768;DHT22;4923;52.520;13.494;2022-10-16T15:59:07;18.00;1.00
9768;DHT22;4923;52.520;13.494;2022-10-16T16:01:54;17.90;1.00
9768;DHT22;4923;52.520;13.494;2022-10-16T16:04:41;17.80;1.00
9768;DHT22;4923;52.520;13.494;2022-10-16T16:07:28;17.70;1.00
9768;DHT22;4923;52.520;13.494;2022-10-16T16:10:19;17.60;1.00
9768;DHT22;4923;52.520;13.494;2022-10-16T16:13:06;17.60;1.00
9768;DHT22;4923;52.520;13.494;2022-10-16T16:15:53;17.40;1.00
9768;DHT22;4923;52.520;13.494;2022-10-16T16:18:42;17.30;1.00
9768;DHT22;4923;52.520;13.494;2022-10-16T16:21:29;17.20;1.00
9768;DHT22;4923;52.520;13.494;2022-10-16T16:24:16;17.10;1.00
9768;DHT22;4923;52.520;13.494;2022-10-16T16:27:04;17.00;1.00
9768;DHT22;4923;52.520;13.494;2022-10-16T16:29:51;16.90;1.00
9768;DHT22;4923;52.520;13.494;2022-10-16T16:32:39;16.70;1.00
9768;DHT22;4923;52.520;13.494;2022-10-16T16:35:25;16.70;1.00
9768;DHT22;4923;52.520;13.494;2022-10-16T16:38:12;16.60;1.00
9768;DHT22;4923;52.520;13.494;2022-10-16T16:41:00;16.60;1.00
9768;DHT22;4923;52.520;13.494;2022-10-16T16:44:03;16.60;1.00
9768;DHT22;4923;52.520;13.494;2022-10-16T16:46:50;16.40;1.00
9768;DHT22;4923;52.520;13.494;2022-10-16T16:49:38;16.40;1.00
9768;DHT22;4923;52.520;13.494;2022-10-16T16:52:28;16.30;1.00
9768;DHT22;4923;52.520;13.494;2022-10-16T16:55:15;16.40;1.00
9768;DHT22;4923;52.520;13.494;2022-10-16T16:58:02;16.40;1.00
9768;DHT22;4923;52.520;13.494;2022-10-16T17:00:51;16.30;1.00
9768;DHT22;4923;52.520;13.494;2022-10-16T17:03:41;16.20;1.00
9768;DHT22;4923;52.520;13.494;2022-10-16T17:06:29;16.30;1.00
9768;DHT22;4923;52.520;13.494;2022-10-16T17:09:16;16.20;1.00
9768;DHT22;4923;52.520;13.494;2022-10-16T17:12:04;16.10;1.00
9768;DHT22;4923;52.520;13.494;2022-10-16T17:14:50;16.00;1.00
9768;DHT22;4923;52.520;13.494;2022-10-16T17:17:39;15.90;1.00
9768;DHT22;4923;52.520;13.494;2022-10-16T17:20:26;15.80;1.00
9768;DHT22;4923;52.520;13.494;2022-10-16T17:23:14;15.80;1.00
9768;DHT22;4923;52.520;13.494;2022-10-16T17:26:06;15.80;1.00
9768;DHT22;4923;52.520;13.494;2022-10-16T17:28:54;15.70;1.00
9768;DHT22;4923;52.520;13.494;2022-10-16T17:31:41;15.70;1.00
9768;DHT22;4923;52.520;13.494;2022-10-16T17:34:30;15.70;1.00
9768;DHT22;4923;52.520;13.494;2022-10-16T17:37:17;15.60;1.00
9768;DHT22;4923;52.520;13.494;2022-10-16T17:40:05;15.50;1.00
9768;DHT22;4923;52.520;13.494;2022-10-16T17:42:52;15.30;1.00
9768;DHT22;4923;52.520;13.494;2022-10-16T17:45:39;15.20;1.00
9768;DHT22;4923;52.520;13.494;2022-10-16T17:48:26;15.10;1.00
9768;DHT22;4923;52.520;13.494;2022-10-16T17:51:18;15.10;1.00
9768;DHT22;4923;52.520;13.494;2022-10-16T17:54:06;15.00;1.00
9768;DHT22;4923;52.520;13.494;2022-10-16T17:56:53;15.00;1.00
9768;DHT22;4923;52.520;13.494;2022-10-16T17:59:40;15.00;1.00
9768;DHT22;4923;52.520;13.494;2022-10-16T18:02:27;14.80;1.00
9768;DHT22;4923;52.520;13.494;2022-10-16T18:05:14;14.80;1.00
9768;DHT22;4923;52.520;13.494;2022-10-16T18:08:03;14.70;1.00
9768;DHT22;4923;52.520;13.494;2022-10-16T18:10:51;14.50;1.00
9768;DHT22;4923;52.520;13.494;2022-10-16T18:13:38;14.40;1.00
9768;DHT22;4923;52.520;13.494;2022-10-16T18:16:26;14.30;1.00
9768;DHT22;4923;52.520;13.494;2022-10-16T18:19:14;14.10;1.00
9768;DHT22;4923;52.520;13.494;2022-10-16T18:22:01;14.00;1.00
9768;DHT22;4923;52.520;13.494;2022-10-16T18:24:50;14.10;1.00
9768;DHT22;4923;52.520;13.494;2022-10-16T18:27:37;14.10;1.00